Terminal Aerodrome Forecast
Issued by NWS Memphis, TN

Home | Current Version | Previous Version | Text Only | Print | Product List | Glossary On
Versions: 1 2 3 4 5 6 7 8 9 10 11 12 13 14 15 16 17 18 19 20 21 22 23 24 25 26 27 28 29 30 31 32 33 34 35 36 37 38
000
FTUS44 KMEG 280258 AAB
TAFMEM
TAF AMD
KMEM 280258Z 2803/2824 18010KT P6SM VCSH FEW030 OVC060
     FM281800 18011KT P6SM VCTS BKN040CB
     FM282100 19008KT P6SM BKN050=

USA.gov is the U.S. government's official web portal to all federal, state and local government web resources and services.